createdAt,value
2023-05-24T00:00:26.775Z,13.17
2023-05-24T00:01:26.776Z,13.06
2023-05-24T00:02:26.863Z,12.89
2023-05-24T00:03:26.881Z,12.56
2023-05-24T00:04:26.853Z,12.72
2023-05-24T00:05:26.849Z,12.89
2023-05-24T00:06:26.787Z,12.89
2023-05-24T00:07:26.782Z,13.06
2023-05-24T00:08:26.793Z,12.72
2023-05-24T00:09:26.783Z,12.72
2023-05-24T00:11:26.804Z,12.72
2023-05-24T00:13:26.789Z,13.17
2023-05-24T00:14:26.798Z,13.17
2023-05-24T00:15:26.791Z,13.06
2023-05-24T00:16:26.886Z,12.72
2023-05-24T00:18:26.795Z,12.72
2023-05-24T00:19:26.812Z,12.78
2023-05-24T00:21:26.830Z,12.89
2023-05-24T00:22:26.806Z,13.06
2023-05-24T00:23:26.813Z,13.06
2023-05-24T00:25:26.838Z,13.17
2023-05-24T00:26:26.818Z,13.17
2023-05-24T00:28:26.810Z,12.89
2023-05-24T00:29:26.825Z,12.89
2023-05-24T00:30:26.806Z,12.72
2023-05-24T00:31:26.814Z,12.56
2023-05-24T00:32:26.852Z,12.72
2023-05-24T00:34:26.818Z,13.17
2023-05-24T00:35:26.820Z,13.17
2023-05-24T00:37:26.858Z,13.06
2023-05-24T00:38:26.813Z,12.72
2023-05-24T00:39:26.821Z,12.72
2023-05-24T00:41:26.835Z,12.72
2023-05-24T00:42:26.832Z,12.44
2023-05-24T00:43:26.816Z,12.28
2023-05-24T00:44:26.834Z,12.28
2023-05-24T00:46:26.915Z,12.44
2023-05-24T00:47:26.833Z,12.28
2023-05-24T00:48:26.825Z,12.28
2023-05-24T00:49:26.829Z,12.72
2023-05-24T00:50:26.833Z,12.56
2023-05-24T00:51:26.822Z,12.56
2023-05-24T00:52:26.825Z,12.72
2023-05-24T00:53:26.868Z,12.72
2023-05-24T00:55:26.830Z,12.72
2023-05-24T00:57:26.832Z,12.72
2023-05-24T00:58:26.840Z,12.72
2023-05-24T00:59:26.849Z,12.89
2023-05-24T01:00:26.845Z,12.56
2023-05-24T01:01:26.872Z,12.44
2023-05-24T01:02:26.854Z,12.44
2023-05-24T01:03:26.956Z,12.72
2023-05-24T01:05:26.860Z,12.89
2023-05-24T01:06:26.848Z,13.06
2023-05-24T01:07:26.861Z,12.56
2023-05-24T01:08:26.855Z,12.72
2023-05-24T01:09:26.871Z,12.56
2023-05-24T01:11:26.842Z,12.72
2023-05-24T01:12:26.838Z,12.56
2023-05-24T01:13:26.852Z,12.72
2023-05-24T01:15:26.871Z,12.44
2023-05-24T01:17:27.088Z,12.72
2023-05-24T01:18:26.855Z,12.56
2023-05-24T01:20:26.898Z,12.44
2023-05-24T01:21:26.861Z,12.72
2023-05-24T01:22:26.845Z,12.56
2023-05-24T01:23:26.842Z,12.72
2023-05-24T01:24:26.845Z,12.56
2023-05-24T01:25:26.871Z,12.72
2023-05-24T01:27:26.848Z,12.89
2023-05-24T01:28:26.854Z,12.72
2023-05-24T01:29:26.864Z,12.72
2023-05-24T01:30:26.843Z,12.72
2023-05-24T01:31:26.846Z,12.72
2023-05-24T01:32:26.876Z,12.56
2023-05-24T01:33:26.852Z,12.56
2023-05-24T01:34:26.849Z,12.28
2023-05-24T01:35:26.852Z,12.28
2023-05-24T01:37:26.851Z,11.83
2023-05-24T01:38:26.846Z,11.83
2023-05-24T01:39:26.857Z,11.83
2023-05-24T01:40:26.867Z,11.72
2023-05-24T01:41:26.897Z,11.83
2023-05-24T01:43:26.865Z,11.94
2023-05-24T01:45:26.874Z,11.83
2023-05-24T01:46:26.913Z,11.83
2023-05-24T01:47:26.902Z,11.83
2023-05-24T01:48:26.876Z,11.61
2023-05-24T01:49:26.852Z,11.72
2023-05-24T01:50:26.862Z,11.83
2023-05-24T01:51:26.862Z,11.83
2023-05-24T01:53:26.879Z,11.83
2023-05-24T01:54:26.862Z,11.83
2023-05-24T01:56:26.867Z,11.83
2023-05-24T01:57:26.909Z,11.61
2023-05-24T01:58:26.867Z,11.72
2023-05-24T01:59:26.861Z,11.83
2023-05-24T02:01:26.966Z,11.83
2023-05-24T02:02:26.917Z,11.83
2023-05-24T02:04:26.877Z,11.83
2023-05-24T02:06:26.882Z,11.61
2023-05-24T02:07:26.874Z,11.61
2023-05-24T02:08:26.875Z,11.72
2023-05-24T02:09:26.874Z,11.83
2023-05-24T02:10:26.876Z,11.83
2023-05-24T02:11:26.877Z,11.72
2023-05-24T02:12:26.877Z,11.72
2023-05-24T02:13:26.920Z,11.61
2023-05-24T02:15:26.890Z,11.72
2023-05-24T02:16:27.165Z,11.61
2023-05-24T02:17:26.970Z,11.61
2023-05-24T02:18:26.924Z,11.44
2023-05-24T02:19:26.880Z,11.83
2023-05-24T02:20:26.917Z,11.72
2023-05-24T02:22:26.899Z,11.94
2023-05-24T02:24:26.895Z,11.72
2023-05-24T02:25:26.888Z,11.61
2023-05-24T02:26:26.899Z,11.61
2023-05-24T02:27:26.898Z,11.72
2023-05-24T02:28:26.885Z,11.61
2023-05-24T02:29:26.937Z,11.83
2023-05-24T02:31:26.968Z,11.83
2023-05-24T02:32:26.910Z,11.83
2023-05-24T02:33:26.907Z,11.83
2023-05-24T02:35:26.941Z,11.72
2023-05-24T02:36:26.906Z,11.83
2023-05-24T02:37:26.928Z,11.83
2023-05-24T02:38:26.922Z,11.83
2023-05-24T02:39:26.935Z,11.83
2023-05-24T02:40:26.921Z,11.83
2023-05-24T02:42:26.928Z,11.83
2023-05-24T02:44:26.948Z,11.83
2023-05-24T02:45:26.977Z,11.72
2023-05-24T02:46:26.936Z,11.61
2023-05-24T02:47:27.219Z,11.83
2023-05-24T02:49:26.920Z,11.72
2023-05-24T02:50:26.925Z,11.83
2023-05-24T02:52:26.928Z,11.83
2023-05-24T02:53:26.950Z,11.61
2023-05-24T02:55:26.965Z,11.44
2023-05-24T02:56:26.928Z,11.44
2023-05-24T02:57:26.941Z,11.44
2023-05-24T02:58:26.938Z,11.44
2023-05-24T02:59:26.945Z,11.61
2023-05-24T03:00:26.943Z,11.83
2023-05-24T03:01:27.017Z,11.72
2023-05-24T03:03:27.020Z,11.72
2023-05-24T03:04:26.979Z,11.61
2023-05-24T03:05:26.943Z,11.83
2023-05-24T03:07:26.951Z,11.72
2023-05-24T03:09:26.949Z,11.28
2023-05-24T03:10:26.942Z,11.72
2023-05-24T03:11:26.961Z,11.72
2023-05-24T03:12:26.957Z,11.83
2023-05-24T03:13:26.976Z,11.83
2023-05-24T03:15:26.945Z,11.83
2023-05-24T03:16:27.001Z,11.83
2023-05-24T03:17:27.001Z,11.61
2023-05-24T03:18:26.948Z,11.83
2023-05-24T03:19:26.976Z,11.83
2023-05-24T03:20:27.023Z,11.83
2023-05-24T03:21:26.994Z,11.83
2023-05-24T03:22:26.970Z,11.83
2023-05-24T03:23:26.955Z,11.83
2023-05-24T03:24:26.964Z,11.94
2023-05-24T03:26:26.967Z,11.83
2023-05-24T03:27:26.962Z,11.83
2023-05-24T03:28:26.953Z,11.94
2023-05-24T03:29:26.956Z,11.83
2023-05-24T03:30:26.978Z,11.83
2023-05-24T03:31:26.972Z,11.72
2023-05-24T03:32:26.985Z,11.72
2023-05-24T03:33:26.982Z,11.83
2023-05-24T03:35:26.973Z,11.83
2023-05-24T03:36:26.970Z,11.61
2023-05-24T03:37:26.981Z,11.83
2023-05-24T03:38:26.974Z,11.61
2023-05-24T03:40:26.974Z,11.61
2023-05-24T03:42:26.984Z,11.83
2023-05-24T03:43:27.003Z,11.83
2023-05-24T03:44:26.990Z,11.61
2023-05-24T03:45:34.975Z,11.72
2023-05-24T03:46:27.069Z,11.83
2023-05-24T03:47:27.019Z,11.83
2023-05-24T03:48:26.985Z,11.83
2023-05-24T03:49:27.014Z,11.72
2023-05-24T03:51:26.982Z,11.72
2023-05-24T03:52:26.992Z,11.72
2023-05-24T03:53:26.981Z,11.44
2023-05-24T03:54:26.992Z,11.83
2023-05-24T03:56:26.991Z,11.72
2023-05-24T03:58:26.996Z,11.83
2023-05-24T03:59:26.999Z,11.44
2023-05-24T04:00:26.983Z,11.72
2023-05-24T04:01:33.777Z,11.44
2023-05-24T04:02:27.186Z,11.83
2023-05-24T04:04:27.008Z,11.61
2023-05-24T04:05:27.214Z,11.44
2023-05-24T04:07:26.997Z,11.61
2023-05-24T04:09:27.000Z,11.61
2023-05-24T04:10:27.000Z,11.72
2023-05-24T04:11:27.022Z,11.44
2023-05-24T04:12:27.016Z,11.44
2023-05-24T04:14:27.005Z,11.44
2023-05-24T04:16:27.030Z,11.44
2023-05-24T04:17:27.152Z,11.28
2023-05-24T04:19:27.024Z,11.44
2023-05-24T04:20:27.064Z,11.61
2023-05-24T04:21:27.033Z,11.44
2023-05-24T04:23:27.013Z,11.44
2023-05-24T04:24:27.016Z,11.44
2023-05-24T04:26:27.011Z,11.44
2023-05-24T04:27:27.027Z,11.28
2023-05-24T04:29:27.005Z,11.44
2023-05-24T04:31:27.032Z,11.44
2023-05-24T04:32:27.046Z,11.72
2023-05-24T04:34:27.020Z,11.28
2023-05-24T04:35:27.016Z,11.28
2023-05-24T04:36:27.035Z,11.72
2023-05-24T04:37:27.054Z,11.44
2023-05-24T04:39:27.030Z,11.28
2023-05-24T04:40:27.017Z,11.72
2023-05-24T04:41:27.025Z,11.44
2023-05-24T04:42:27.030Z,11.44
2023-05-24T04:43:27.014Z,11.61
2023-05-24T04:44:27.024Z,11.61
2023-05-24T04:45:27.037Z,11.72
2023-05-24T04:46:27.067Z,11.44
2023-05-24T04:47:27.038Z,11.72
2023-05-24T04:48:27.045Z,11.72
2023-05-24T04:49:27.064Z,11.44
2023-05-24T04:51:27.036Z,11.44
2023-05-24T04:52:27.033Z,11.72
2023-05-24T04:53:27.052Z,11.72
2023-05-24T04:54:27.025Z,11.61
2023-05-24T04:55:27.056Z,11.83
2023-05-24T04:56:27.024Z,11.72
2023-05-24T04:57:27.056Z,11.83
2023-05-24T04:58:27.034Z,11.61
2023-05-24T04:59:27.048Z,11.61
2023-05-24T05:00:27.032Z,11.83
2023-05-24T05:01:27.052Z,11.72
2023-05-24T05:03:27.065Z,11.72
2023-05-24T05:04:27.039Z,11.83
2023-05-24T05:05:27.037Z,11.83
2023-05-24T05:06:27.036Z,11.83
2023-05-24T05:07:27.035Z,11.83
2023-05-24T05:08:27.028Z,11.61
2023-05-24T05:09:27.068Z,11.83
2023-05-24T05:10:27.033Z,11.83
2023-05-24T05:11:27.065Z,11.94
2023-05-24T05:12:27.034Z,11.83
2023-05-24T05:13:27.054Z,11.61
2023-05-24T05:14:27.044Z,11.44
2023-05-24T05:15:27.064Z,11.83
2023-05-24T05:17:27.043Z,11.83
2023-05-24T05:18:27.040Z,11.94
2023-05-24T05:19:27.049Z,11.83
2023-05-24T05:21:27.055Z,11.83
2023-05-24T05:23:27.055Z,11.83
2023-05-24T05:24:27.045Z,11.44
2023-05-24T05:25:27.074Z,11.83
2023-05-24T05:26:27.052Z,11.83
2023-05-24T05:27:27.054Z,11.44
2023-05-24T05:28:27.052Z,11.83
2023-05-24T05:30:27.058Z,11.83
2023-05-24T05:31:27.051Z,11.83
2023-05-24T05:32:27.145Z,11.61
2023-05-24T05:33:27.111Z,11.72
2023-05-24T05:34:27.058Z,11.83
2023-05-24T05:35:27.060Z,11.83
2023-05-24T05:36:27.061Z,11.83
2023-05-24T05:37:27.043Z,11.94
2023-05-24T05:38:27.056Z,11.94
2023-05-24T05:39:27.062Z,11.94
2023-05-24T05:40:27.063Z,11.94
2023-05-24T05:41:27.087Z,11.94
2023-05-24T05:42:27.052Z,12.11
2023-05-24T05:43:27.128Z,12.11
2023-05-24T05:44:27.054Z,11.94
2023-05-24T05:45:27.067Z,11.61
2023-05-24T05:46:27.080Z,11.83
2023-05-24T05:47:27.143Z,11.83
2023-05-24T05:49:27.080Z,11.83
2023-05-24T05:50:27.072Z,11.83
2023-05-24T05:51:27.077Z,11.83
2023-05-24T05:52:27.076Z,11.61
2023-05-24T05:53:27.081Z,11.94
2023-05-24T05:54:27.067Z,11.83
2023-05-24T05:55:27.063Z,11.83
2023-05-24T05:56:27.068Z,11.83
2023-05-24T05:57:27.076Z,11.83
2023-05-24T05:58:27.055Z,11.83
2023-05-24T05:59:27.057Z,11.83
2023-05-24T06:00:27.070Z,12.11
2023-05-24T06:01:27.069Z,11.94
2023-05-24T06:03:27.204Z,12.11
2023-05-24T06:04:27.165Z,12.11
2023-05-24T06:05:27.094Z,12.28
2023-05-24T06:07:27.063Z,12.11
2023-05-24T06:08:27.061Z,12.28
2023-05-24T06:10:27.068Z,12.28
2023-05-24T06:11:27.068Z,12.28
2023-05-24T06:13:27.105Z,12.72
2023-05-24T06:15:27.073Z,12.72
2023-05-24T06:16:27.105Z,12.72
2023-05-24T06:17:27.080Z,12.72
2023-05-24T06:18:27.064Z,12.44
2023-05-24T06:19:27.075Z,12.44
2023-05-24T06:21:27.063Z,12.44
2023-05-24T06:22:27.071Z,12.44
2023-05-24T06:23:27.070Z,12.56
2023-05-24T06:24:27.100Z,12.28
2023-05-24T06:26:27.130Z,12.56
2023-05-24T06:27:27.075Z,12.28
2023-05-24T06:28:27.055Z,11.94
2023-05-24T06:29:27.091Z,12.28
2023-05-24T06:31:27.120Z,12.28
2023-05-24T06:32:27.076Z,12.28
2023-05-24T06:33:27.073Z,12.44
2023-05-24T06:34:27.065Z,12.28
2023-05-24T06:36:27.086Z,12.28
2023-05-24T06:37:27.070Z,12.56
2023-05-24T06:38:27.060Z,12.72
2023-05-24T06:39:27.076Z,12.44
2023-05-24T06:41:27.075Z,12.28
2023-05-24T06:42:27.084Z,12.72
2023-05-24T06:43:27.068Z,12.89
2023-05-24T06:44:27.074Z,12.72
2023-05-24T06:45:27.104Z,12.44
2023-05-24T06:47:27.159Z,13.06
2023-05-24T06:48:27.176Z,12.89
2023-05-24T06:49:27.105Z,13.17
2023-05-24T06:51:27.081Z,13.17
2023-05-24T06:53:27.084Z,13.17
2023-05-24T06:54:27.132Z,12.89
2023-05-24T06:56:27.086Z,13.33
2023-05-24T06:58:27.077Z,13.33
2023-05-24T06:59:27.093Z,13.5
2023-05-24T07:01:27.313Z,13.67
2023-05-24T07:03:27.109Z,13.5
2023-05-24T07:04:27.148Z,13.78
2023-05-24T07:06:27.101Z,13.67
2023-05-24T07:07:27.120Z,13.67
2023-05-24T07:08:27.098Z,13.5
2023-05-24T07:09:27.106Z,13.17
2023-05-24T07:10:27.115Z,13.17
2023-05-24T07:11:27.131Z,13.5
2023-05-24T07:12:27.118Z,13.78
2023-05-24T07:13:27.113Z,13.94
2023-05-24T07:15:27.118Z,13.78
2023-05-24T07:16:27.134Z,13.94
2023-05-24T07:17:27.172Z,14.06
2023-05-24T07:19:27.111Z,14.39
2023-05-24T07:20:27.179Z,14.28
2023-05-24T07:21:27.096Z,14.06
2023-05-24T07:22:27.135Z,14.39
2023-05-24T07:23:27.107Z,14.28
2023-05-24T07:24:27.120Z,14.06
2023-05-24T07:26:27.114Z,14.89
2023-05-24T07:28:27.117Z,14.56
2023-05-24T07:30:32.074Z,14.67
2023-05-24T07:32:27.213Z,14.28
2023-05-24T07:33:27.195Z,14.28
2023-05-24T07:35:27.121Z,14.56
2023-05-24T07:36:27.124Z,15
2023-05-24T07:37:27.114Z,15
2023-05-24T07:38:27.120Z,14.89
2023-05-24T07:39:27.130Z,15
2023-05-24T07:40:27.123Z,14.89
2023-05-24T07:41:27.119Z,14.89
2023-05-24T07:42:27.120Z,14.89
2023-05-24T07:43:27.134Z,14.89
2023-05-24T07:45:27.121Z,15.39
2023-05-24T07:46:27.186Z,15.22
2023-05-24T07:47:27.139Z,15.39
2023-05-24T07:48:27.153Z,14.89
2023-05-24T07:49:27.168Z,14.61
2023-05-24T07:51:27.140Z,14.44
2023-05-24T07:52:27.144Z,14.61
2023-05-24T07:53:27.135Z,14.61
2023-05-24T07:54:27.143Z,14.78
2023-05-24T07:55:27.164Z,14.28
2023-05-24T07:57:27.174Z,14.44
2023-05-24T07:59:27.154Z,14.89
2023-05-24T08:00:27.153Z,14.61
2023-05-24T08:01:27.161Z,14.78
2023-05-24T08:02:27.235Z,14.78
2023-05-24T08:03:27.228Z,14.44
2023-05-24T08:04:27.151Z,15.06
2023-05-24T08:05:27.202Z,15.61
2023-05-24T08:07:27.217Z,15.17
2023-05-24T08:08:27.171Z,14.89
2023-05-24T08:09:27.154Z,14.89
2023-05-24T08:10:27.178Z,15.06
2023-05-24T08:11:27.156Z,14.61
2023-05-24T08:12:27.162Z,14.61
2023-05-24T08:14:27.162Z,14.61
2023-05-24T08:15:27.170Z,14.28
2023-05-24T08:16:27.200Z,14.44
2023-05-24T08:17:27.178Z,14.44
2023-05-24T08:18:27.161Z,14.78
2023-05-24T08:19:27.199Z,14.78
2023-05-24T08:20:27.336Z,14.78
2023-05-24T08:21:27.211Z,15.17
2023-05-24T08:23:27.176Z,15.06
2023-05-24T08:24:27.188Z,15.61
2023-05-24T08:25:27.184Z,15.17
2023-05-24T08:26:27.172Z,15.17
2023-05-24T08:27:27.181Z,14.78
2023-05-24T08:28:27.205Z,15.17
2023-05-24T08:29:27.185Z,15.17
2023-05-24T08:30:27.193Z,15.17
2023-05-24T08:32:27.335Z,15.17
2023-05-24T08:33:27.214Z,14.89
2023-05-24T08:35:27.198Z,15.17
2023-05-24T08:36:27.202Z,14.78
2023-05-24T08:37:27.212Z,15.17
2023-05-24T08:39:27.206Z,15.61
2023-05-24T08:41:27.212Z,15.17
2023-05-24T08:42:27.205Z,15.44
2023-05-24T08:44:27.210Z,15.61
2023-05-24T08:45:27.224Z,14.78
2023-05-24T08:46:27.277Z,15.17
2023-05-24T08:48:27.306Z,15.28
2023-05-24T08:49:27.235Z,15.61
2023-05-24T08:50:27.202Z,15.17
2023-05-24T08:51:27.220Z,15.44
2023-05-24T08:52:27.222Z,15.61
2023-05-24T08:53:27.394Z,16.06
2023-05-24T08:54:27.215Z,15.44
2023-05-24T08:55:27.241Z,15.61
2023-05-24T08:56:27.222Z,15.89
2023-05-24T08:57:27.230Z,16.39
2023-05-24T08:58:27.214Z,15.44
2023-05-24T08:59:27.225Z,15.61
2023-05-24T09:00:27.219Z,15.78
2023-05-24T09:01:29.871Z,15.44
2023-05-24T09:02:27.234Z,15.17
2023-05-24T09:03:27.355Z,15.28
2023-05-24T09:04:27.269Z,15.28
2023-05-24T09:05:27.248Z,15.61
2023-05-24T09:06:27.260Z,15.61
2023-05-24T09:07:27.230Z,16.06
2023-05-24T09:08:27.238Z,16.22
2023-05-24T09:09:27.274Z,16.39
2023-05-24T09:11:27.243Z,17.17
2023-05-24T09:12:36.011Z,16.89
2023-05-24T09:13:27.241Z,17
2023-05-24T09:14:27.249Z,16.56
2023-05-24T09:15:27.257Z,17
2023-05-24T09:17:27.278Z,17.33
2023-05-24T09:18:27.244Z,17.17
2023-05-24T09:19:27.386Z,17.33
2023-05-24T09:21:27.274Z,17
2023-05-24T09:23:27.259Z,17
2023-05-24T09:24:27.259Z,16.56
2023-05-24T09:25:27.271Z,16.56
2023-05-24T09:27:27.271Z,16.56
2023-05-24T09:29:27.246Z,16.56
2023-05-24T09:30:27.277Z,16.72
2023-05-24T09:31:27.266Z,16.56
2023-05-24T09:32:27.288Z,16.56
2023-05-24T09:33:27.258Z,16.06
2023-05-24T09:35:27.255Z,16.72
2023-05-24T09:37:30.903Z,16.72
2023-05-24T09:39:27.269Z,16.39
2023-05-24T09:40:27.299Z,16.22
2023-05-24T09:41:27.281Z,16.39
2023-05-24T09:42:27.295Z,16.06
2023-05-24T09:43:27.265Z,17.5
2023-05-24T09:44:27.279Z,17.94
2023-05-24T09:45:27.279Z,16.89
2023-05-24T09:46:27.315Z,16.56
2023-05-24T09:47:27.283Z,17
2023-05-24T09:48:27.283Z,17
2023-05-24T09:49:27.280Z,17.67
2023-05-24T09:51:27.381Z,17.83
2023-05-24T09:52:27.287Z,17.5
2023-05-24T09:53:27.281Z,17.33
2023-05-24T09:55:27.286Z,17.5
2023-05-24T09:56:27.289Z,17.67
2023-05-24T09:57:27.343Z,17.33
2023-05-24T09:59:27.292Z,17.5
2023-05-24T10:00:27.300Z,17.94
2023-05-24T10:02:29.914Z,17.83
2023-05-24T10:03:27.405Z,17.5
2023-05-24T10:05:27.302Z,18.17
2023-05-24T10:06:27.288Z,17.94
2023-05-24T10:07:27.338Z,17.5
2023-05-24T10:08:27.294Z,17.67
2023-05-24T10:09:27.299Z,17.5
2023-05-24T10:10:27.319Z,17
2023-05-24T10:12:27.304Z,17.5
2023-05-24T10:13:27.380Z,17
2023-05-24T10:15:27.306Z,16.72
2023-05-24T10:17:27.342Z,17
2023-05-24T10:19:27.310Z,17.39
2023-05-24T10:20:27.399Z,17.28
2023-05-24T10:22:27.326Z,17.22
2023-05-24T10:23:27.305Z,17.22
2023-05-24T10:24:27.311Z,17.22
2023-05-24T10:25:27.356Z,17.22
2023-05-24T10:26:27.310Z,16.72
2023-05-24T10:27:27.318Z,17.67
2023-05-24T10:29:27.337Z,17.83
2023-05-24T10:31:27.365Z,17.39
2023-05-24T10:32:27.414Z,17.22
2023-05-24T10:33:27.313Z,17.5
2023-05-24T10:34:27.326Z,18
2023-05-24T10:35:27.347Z,17.67
2023-05-24T10:37:27.369Z,17.5
2023-05-24T10:38:27.335Z,17.83
2023-05-24T10:39:27.329Z,17.22
2023-05-24T10:40:27.332Z,17.67
2023-05-24T10:42:27.338Z,17.83
2023-05-24T10:43:27.337Z,17.83
2023-05-24T10:44:27.322Z,18
2023-05-24T10:45:27.408Z,17.83
2023-05-24T10:47:27.397Z,16.89
2023-05-24T10:48:27.356Z,17.06
2023-05-24T10:49:27.336Z,16.89
2023-05-24T10:50:27.332Z,16.72
2023-05-24T10:51:27.343Z,16.89
2023-05-24T10:52:27.346Z,17.22
2023-05-24T10:53:27.357Z,17.06
2023-05-24T10:55:27.351Z,17.39
2023-05-24T10:57:27.339Z,16.72
2023-05-24T10:58:27.384Z,16.56
2023-05-24T10:59:27.348Z,16.44
2023-05-24T11:01:27.499Z,16.44
2023-05-24T11:03:27.354Z,16.11
2023-05-24T11:04:27.369Z,16.28
2023-05-24T11:05:27.403Z,15.94
2023-05-24T11:06:27.366Z,16.28
2023-05-24T11:07:27.376Z,15.67
2023-05-24T11:09:27.365Z,16.11
2023-05-24T11:11:29.354Z,16.11
2023-05-24T11:13:27.373Z,15.83
2023-05-24T11:14:27.400Z,16.11
2023-05-24T11:16:27.378Z,15.94
2023-05-24T11:17:27.464Z,15.94
2023-05-24T11:18:27.359Z,16.28
2023-05-24T11:19:27.363Z,16.11
2023-05-24T11:20:27.411Z,16.28
2023-05-24T11:21:27.380Z,15.67
2023-05-24T11:22:27.365Z,15.83
2023-05-24T11:24:27.367Z,15.33
2023-05-24T11:25:27.367Z,15.67
2023-05-24T11:26:27.374Z,15.83
2023-05-24T11:28:27.393Z,15.22
2023-05-24T11:30:27.388Z,15.33
2023-05-24T11:31:27.408Z,15.5
2023-05-24T11:32:27.424Z,15.11
2023-05-24T11:33:27.399Z,15.5
2023-05-24T11:35:27.389Z,14.94
2023-05-24T11:36:27.384Z,14.83
2023-05-24T11:37:35.105Z,14.94
2023-05-24T11:38:27.374Z,14.61
2023-05-24T11:39:27.377Z,14.94
2023-05-24T11:41:27.392Z,14.94
2023-05-24T11:43:27.383Z,14.94
2023-05-24T11:45:27.395Z,14.94
2023-05-24T11:46:27.402Z,14.94
2023-05-24T11:47:27.377Z,14.61
2023-05-24T11:48:27.398Z,14.94
2023-05-24T11:49:27.405Z,14.94
2023-05-24T11:51:27.388Z,14.94
2023-05-24T11:52:27.393Z,14.94
2023-05-24T11:53:27.378Z,14.5
2023-05-24T11:54:27.381Z,14.83
2023-05-24T11:56:27.377Z,14.94
2023-05-24T11:57:27.381Z,14.5
2023-05-24T11:58:27.389Z,14.61
2023-05-24T11:59:27.365Z,14.5
2023-05-24T12:00:27.386Z,14.5
2023-05-24T12:01:27.512Z,14.5
2023-05-24T12:02:27.423Z,14.61
2023-05-24T12:03:27.574Z,14.61
2023-05-24T12:04:27.432Z,14.5
2023-05-24T12:05:27.407Z,14.5
2023-05-24T12:06:27.376Z,14.17
2023-05-24T12:07:27.378Z,14.5
2023-05-24T12:09:27.401Z,14.06
2023-05-24T12:10:27.385Z,14.06
2023-05-24T12:11:27.396Z,14.06
2023-05-24T12:12:34.251Z,14.06
2023-05-24T12:15:27.409Z,14.06
2023-05-24T12:16:27.394Z,14.06
2023-05-24T12:17:27.424Z,14.06
2023-05-24T12:20:27.454Z,13.89
2023-05-24T12:21:27.439Z,13.56
2023-05-24T12:23:27.415Z,13.56
2023-05-24T12:24:27.402Z,13.28
2023-05-24T12:25:27.411Z,13.56
2023-05-24T12:27:27.426Z,13
2023-05-24T12:28:27.425Z,12.94
2023-05-24T12:29:27.404Z,13.06
2023-05-24T12:30:27.422Z,12.83
2023-05-24T12:32:27.443Z,12.78
2023-05-24T12:33:27.428Z,12.5
2023-05-24T12:34:27.410Z,12.83
2023-05-24T12:35:27.417Z,12.5
2023-05-24T12:36:27.414Z,12.33
2023-05-24T12:37:27.438Z,12.61
2023-05-24T12:38:27.416Z,12.61
2023-05-24T12:39:27.429Z,12.78
2023-05-24T12:40:27.452Z,12.61
2023-05-24T12:41:27.446Z,12.5
2023-05-24T12:42:27.441Z,12.78
2023-05-24T12:43:27.448Z,12.78
2023-05-24T12:44:27.436Z,12.5
2023-05-24T12:45:27.438Z,12.94
2023-05-24T12:46:27.441Z,12.78
2023-05-24T12:47:27.519Z,12.61
2023-05-24T12:49:27.445Z,12.33
2023-05-24T12:50:27.484Z,12.5
2023-05-24T12:51:27.479Z,12.61
2023-05-24T12:53:27.468Z,12.5
2023-05-24T12:55:27.438Z,12.33
2023-05-24T12:56:27.483Z,12.5
2023-05-24T12:57:27.435Z,12.5
2023-05-24T12:58:27.482Z,12.33
2023-05-24T12:59:27.476Z,12.5
2023-05-24T13:00:27.468Z,12.5
2023-05-24T13:01:27.500Z,12
2023-05-24T13:03:27.445Z,12.17
2023-05-24T13:04:27.814Z,12
2023-05-24T13:06:27.462Z,11.89
2023-05-24T13:07:27.475Z,11.61
2023-05-24T13:09:27.488Z,11.61
2023-05-24T13:11:27.463Z,11.33
2023-05-24T13:12:27.482Z,11.17
2023-05-24T13:13:27.477Z,10.89
2023-05-24T13:14:27.544Z,10.72
2023-05-24T13:15:27.485Z,10.61
2023-05-24T13:16:27.512Z,10.72
2023-05-24T13:17:27.487Z,10.72
2023-05-24T13:18:27.474Z,10.72
2023-05-24T13:20:27.564Z,10.72
2023-05-24T13:21:27.485Z,10.89
2023-05-24T13:23:27.482Z,10.89
2023-05-24T13:24:27.491Z,10.61
2023-05-24T13:25:27.511Z,11.06
2023-05-24T13:27:27.481Z,11.17
2023-05-24T13:29:37.048Z,11.17
2023-05-24T13:31:27.605Z,10.89
2023-05-24T13:33:27.508Z,11.33
2023-05-24T13:35:27.538Z,11.06
2023-05-24T13:36:27.483Z,11.17
2023-05-24T13:38:27.509Z,11.06
2023-05-24T13:40:27.500Z,11.17
2023-05-24T13:41:27.589Z,11.06
2023-05-24T13:43:27.491Z,10.72
2023-05-24T13:44:27.521Z,10.72
2023-05-24T13:45:27.535Z,10.72
2023-05-24T13:46:27.501Z,10.89
2023-05-24T13:47:39.178Z,11.06
2023-05-24T13:48:27.576Z,10.61
2023-05-24T13:49:27.520Z,10.89
2023-05-24T13:50:27.515Z,10.89
2023-05-24T13:51:27.507Z,10.61
2023-05-24T13:52:27.515Z,10.72
2023-05-24T13:54:27.514Z,10.72
2023-05-24T13:55:27.514Z,10.72
2023-05-24T13:56:27.549Z,10.89
2023-05-24T13:57:33.822Z,10.89
2023-05-24T13:59:27.521Z,10.61
2023-05-24T14:00:27.524Z,10.89
2023-05-24T14:01:27.562Z,11.06
2023-05-24T14:02:27.592Z,10.89
2023-05-24T14:03:27.539Z,10.61
2023-05-24T14:04:27.525Z,11.06
2023-05-24T14:05:28.300Z,10.89
2023-05-24T14:06:27.569Z,11.17
2023-05-24T14:07:27.612Z,11.06
2023-05-24T14:08:27.508Z,10.89
2023-05-24T14:09:27.533Z,11.06
2023-05-24T14:10:27.538Z,10.89
2023-05-24T14:12:27.546Z,10.89
2023-05-24T14:15:27.541Z,11.06
2023-05-24T14:16:27.586Z,10.61
2023-05-24T14:17:27.568Z,11.17
2023-05-24T14:19:27.542Z,11.06
2023-05-24T14:20:27.547Z,10.72
2023-05-24T14:22:27.660Z,11.06
2023-05-24T14:23:27.545Z,10.72
2023-05-24T14:24:27.544Z,10.89
2023-05-24T14:25:27.553Z,10.72
2023-05-24T14:26:27.532Z,10.72
2023-05-24T14:27:27.561Z,10.61
2023-05-24T14:29:27.589Z,10.72
2023-05-24T14:30:27.536Z,10.89
2023-05-24T14:31:27.599Z,10.72
2023-05-24T14:32:27.559Z,10.72
2023-05-24T14:33:27.550Z,10.72
2023-05-24T14:34:27.574Z,10.61
2023-05-24T14:36:27.561Z,10.72
2023-05-24T14:38:27.565Z,10.72
2023-05-24T14:40:27.596Z,10.72
2023-05-24T14:42:27.557Z,10.72
2023-05-24T14:43:27.571Z,10.89
2023-05-24T14:44:27.570Z,11
2023-05-24T14:45:27.598Z,10.83
2023-05-24T14:47:27.559Z,10.67
2023-05-24T14:48:27.571Z,10.56
2023-05-24T14:49:27.577Z,10.67
2023-05-24T14:51:27.569Z,10.83
2023-05-24T14:52:27.572Z,10.56
2023-05-24T14:53:27.578Z,10.56
2023-05-24T14:55:27.574Z,10.56
2023-05-24T14:56:27.601Z,10.56
2023-05-24T14:57:27.584Z,10.56
2023-05-24T14:58:27.570Z,10.67
2023-05-24T14:59:27.575Z,10.56
2023-05-24T15:00:28.528Z,10.67
2023-05-24T15:01:27.672Z,10.56
2023-05-24T15:03:27.818Z,10.56
2023-05-24T15:04:27.594Z,10.56
2023-05-24T15:05:27.612Z,10.39
2023-05-24T15:07:27.609Z,10.39
2023-05-24T15:08:27.578Z,10.11
2023-05-24T15:09:27.583Z,10.22
2023-05-24T15:10:27.602Z,10.22
2023-05-24T15:11:27.586Z,10.22
2023-05-24T15:12:27.593Z,10.22
2023-05-24T15:13:27.592Z,10.22
2023-05-24T15:14:27.603Z,10.39
2023-05-24T15:15:27.598Z,10.56
2023-05-24T15:16:27.617Z,10.67
2023-05-24T15:17:27.810Z,10.22
2023-05-24T15:19:27.617Z,10.39
2023-05-24T15:20:27.753Z,10.39
2023-05-24T15:22:27.607Z,10.56
2023-05-24T15:24:27.645Z,10.56
2023-05-24T15:25:27.607Z,10.39
2023-05-24T15:26:27.618Z,10.39
2023-05-24T15:27:27.596Z,10.39
2023-05-24T15:28:27.605Z,10.39
2023-05-24T15:29:27.624Z,10.56
2023-05-24T15:30:27.602Z,10.56
2023-05-24T15:31:27.636Z,10.39
2023-05-24T15:33:27.704Z,10.56
2023-05-24T15:35:27.606Z,10.56
2023-05-24T15:36:27.605Z,10.39
2023-05-24T15:37:27.622Z,10.39
2023-05-24T15:38:27.630Z,10.39
2023-05-24T15:39:27.619Z,10.56
2023-05-24T15:41:27.625Z,10.39
2023-05-24T15:42:27.632Z,10.56
2023-05-24T15:44:27.617Z,10.39
2023-05-24T15:45:27.631Z,10.56
2023-05-24T15:47:27.666Z,10.39
2023-05-24T15:49:27.647Z,10.39
2023-05-24T15:52:27.616Z,10.39
2023-05-24T15:53:27.630Z,10.39
2023-05-24T15:54:27.629Z,10.56
2023-05-24T15:56:27.666Z,10.56
2023-05-24T15:57:27.643Z,10.22
2023-05-24T15:59:27.633Z,10.11
2023-05-24T16:01:27.632Z,10.11
2023-05-24T16:02:27.744Z,10.22
2023-05-24T16:03:27.711Z,10.56
2023-05-24T16:04:27.636Z,10.22
2023-05-24T16:05:27.663Z,10.11
2023-05-24T16:07:27.644Z,10.22
2023-05-24T16:08:27.849Z,10.11
2023-05-24T16:09:27.645Z,10.39
2023-05-24T16:10:27.641Z,10.11
2023-05-24T16:11:27.634Z,10.22
2023-05-24T16:12:27.632Z,10.22
2023-05-24T16:14:27.647Z,10.22
2023-05-24T16:15:27.650Z,10.22
2023-05-24T16:16:27.694Z,10.22
2023-05-24T16:17:27.686Z,9.78
2023-05-24T16:19:27.657Z,10.22